Time;durP1;ratioP1;P1;durP2;ratioP2;P2;SDS_P1;SDS_P2;PMS_P1;PMS_P2;Temp;Humidity;BMP_temperature;BMP_pressure;BME280_temperature;BME280_humidity;BME280_pressure;Samples;Min_cycle;Max_cycle;Signal;HPM_P1;HPM_P2
2023/07/02 00:00:40;;;;;;;6.80;4.20;;;;;;;;;;5019331;28;20073;-93
2023/07/02 00:03:06;;;;;;;6.70;3.78;;;;;;;;;;5019844;28;20021;-93
2023/07/02 00:05:32;;;;;;;5.05;4.10;;;;;;;;;;5021152;28;20110;-93
2023/07/02 00:07:58;;;;;;;6.78;4.22;;;;;;;;;;5018462;28;20075;-93
2023/07/02 00:22:46;;;;;;;6.30;3.80;;;;;;;;;;4956747;29;20139;-92
2023/07/02 00:25:21;;;;;;;6.18;4.53;;;;;;;;;;4939202;28;20291;-93
2023/07/02 00:27:47;;;;;;;4.90;3.88;;;;;;;;;;4939681;29;20040;-93
2023/07/02 00:33:35;;;;;;;5.40;3.87;;;;;;;;;;4960714;28;20034;-92
2023/07/02 00:36:01;;;;;;;6.35;4.32;;;;;;;;;;4940475;29;20480;-92
2023/07/02 00:38:30;;;;;;;6.45;4.10;;;;;;;;;;4939962;29;20046;-93
2023/07/02 00:41:02;;;;;;;5.78;3.97;;;;;;;;;;5127242;23;20057;-92
2023/07/02 00:43:30;;;;;;;7.50;3.63;;;;;;;;;;5019339;28;20029;-94
2023/07/02 00:45:56;;;;;;;6.93;3.75;;;;;;;;;;5017215;28;20114;-94
2023/07/02 00:48:22;;;;;;;5.47;3.67;;;;;;;;;;5013931;28;20026;-94
2023/07/02 00:50:52;;;;;;;4.97;3.50;;;;;;;;;;4998651;28;20036;-92
2023/07/02 00:53:18;;;;;;;10.18;4.10;;;;;;;;;;5017016;28;20208;-93
2023/07/02 00:55:47;;;;;;;4.68;3.60;;;;;;;;;;5017918;28;20494;-95
2023/07/02 00:58:33;;;;;;;5.28;3.60;;;;;;;;;;5017690;28;20025;-93
2023/07/02 01:01:05;;;;;;;5.82;3.70;;;;;;;;;;5017257;28;20045;-94
2023/07/02 01:03:32;;;;;;;4.78;3.53;;;;;;;;;;5020724;28;20033;-94
2023/07/02 01:06:03;;;;;;;4.00;3.30;;;;;;;;;;5007887;28;20030;-94
2023/07/02 01:08:29;;;;;;;6.32;3.83;;;;;;;;;;4999659;28;20010;-94
2023/07/02 01:10:55;;;;;;;4.85;3.67;;;;;;;;;;4997360;28;20363;-95
2023/07/02 01:13:22;;;;;;;6.00;3.60;;;;;;;;;;5001618;28;20022;-93
2023/07/02 01:15:51;;;;;;;8.70;4.13;;;;;;;;;;5003631;28;20080;-94
2023/07/02 01:18:21;;;;;;;7.70;3.88;;;;;;;;;;5062293;23;20498;-93
2023/07/02 01:20:48;;;;;;;5.55;3.75;;;;;;;;;;5022349;28;20037;-95
2023/07/02 01:23:14;;;;;;;5.72;3.78;;;;;;;;;;5046063;23;20053;-93
2023/07/02 01:25:40;;;;;;;4.72;3.40;;;;;;;;;;5020930;28;20490;-94
2023/07/02 01:28:06;;;;;;;5.60;3.35;;;;;;;;;;5018674;28;20030;-94
2023/07/02 01:30:46;;;;;;;4.82;3.45;;;;;;;;;;5018772;28;20036;-93
2023/07/02 01:33:12;;;;;;;7.05;3.75;;;;;;;;;;5020935;28;20029;-94
2023/07/02 01:35:44;;;;;;;4.95;3.40;;;;;;;;;;5019969;28;20017;-94
2023/07/02 01:38:14;;;;;;;5.45;3.65;;;;;;;;;;5020929;28;20029;-95
2023/07/02 01:40:43;;;;;;;5.45;3.40;;;;;;;;;;5027492;28;20050;-94
2023/07/02 01:43:35;;;;;;;5.75;3.95;;;;;;;;;;5020597;28;20025;-94
2023/07/02 01:46:07;;;;;;;5.35;3.80;;;;;;;;;;5022647;28;20030;-94
2023/07/02 01:48:40;;;;;;;5.07;3.35;;;;;;;;;;5021167;28;20068;-93
2023/07/02 01:51:13;;;;;;;;;;;;;;;;;;5021003;28;20017;-94
2023/07/02 01:53:42;;;;;;;7.07;3.33;;;;;;;;;;5020319;28;20376;-94
2023/07/02 01:56:12;;;;;;;5.25;3.40;;;;;;;;;;5020684;28;20029;-94
2023/07/02 01:58:39;;;;;;;5.38;3.58;;;;;;;;;;5008052;28;20075;-94
2023/07/02 02:01:11;;;;;;;4.82;3.55;;;;;;;;;;5011526;28;20041;-93
2023/07/02 02:03:37;;;;;;;4.90;3.37;;;;;;;;;;5020948;28;20053;-93
2023/07/02 02:06:03;;;;;;;4.28;3.10;;;;;;;;;;5021142;28;20071;-94
2023/07/02 02:08:59;;;;;;;5.35;3.50;;;;;;;;;;5022747;28;20030;-93
2023/07/02 02:11:26;;;;;;;6.18;3.50;;;;;;;;;;4936612;28;20551;-93
2023/07/02 02:13:53;;;;;;;4.53;3.22;;;;;;;;;;5015996;28;20045;-95
2023/07/02 02:16:28;;;;;;;5.32;3.50;;;;;;;;;;5017445;28;20037;-93
2023/07/02 02:18:58;;;;;;;6.45;3.55;;;;;;;;;;5020345;28;20029;-94
2023/07/02 02:21:27;;;;;;;5.25;3.17;;;;;;;;;;5022724;28;20025;-94
2023/07/02 02:23:58;;;;;;;5.85;3.20;;;;;;;;;;5018048;28;20065;-94
2023/07/02 02:26:25;;;;;;;4.78;3.50;;;;;;;;;;5056067;23;20033;-94
2023/07/02 02:28:52;;;;;;;4.38;3.10;;;;;;;;;;5053422;28;20107;-92
2023/07/02 02:31:18;;;;;;;4.38;3.25;;;;;;;;;;5088553;23;20510;-93
2023/07/02 02:33:44;;;;;;;6.18;3.30;;;;;;;;;;5020012;28;20022;-93
2023/07/02 02:36:15;;;;;;;3.70;2.92;;;;;;;;;;5019047;28;20033;-92
2023/07/02 02:38:45;;;;;;;6.90;3.53;;;;;;;;;;5019688;28;20022;-93
2023/07/02 02:41:14;;;;;;;5.88;3.30;;;;;;;;;;5060178;23;20073;-93
2023/07/02 02:43:49;;;;;;;5.45;3.25;;;;;;;;;;5027668;28;20025;-92
2023/07/02 02:49:07;;;;;;;5.85;3.20;;;;;;;;;;5289721;22;20042;-94
2023/07/02 02:51:43;;;;;;;6.30;3.20;;;;;;;;;;5059966;23;20014;-93
2023/07/02 02:54:15;;;;;;;7.85;3.40;;;;;;;;;;5068459;23;20057;-93
2023/07/02 02:56:56;;;;;;;4.90;2.90;;;;;;;;;;5073064;23;20049;-93
2023/07/02 02:59:22;;;;;;;4.07;3.13;;;;;;;;;;5247606;23;20442;-94
2023/07/02 03:04:24;;;;;;;6.15;3.47;;;;;;;;;;5037230;28;20037;-92
2023/07/02 03:06:52;;;;;;;7.68;3.42;;;;;;;;;;5096708;22;20502;-93
2023/07/02 03:09:19;;;;;;;4.82;3.13;;;;;;;;;;5113734;23;20325;-94
2023/07/02 03:11:51;;;;;;;4.72;3.40;;;;;;;;;;5025885;28;20077;-95
2023/07/02 03:14:18;;;;;;;4.80;3.50;;;;;;;;;;5057160;23;20076;-95
2023/07/02 03:16:46;;;;;;;4.05;2.92;;;;;;;;;;5129166;22;20104;-94
2023/07/02 03:22:26;;;;;;;5.20;3.40;;;;;;;;;;5170238;23;20037;-93
2023/07/02 03:27:35;;;;;;;5.45;3.75;;;;;;;;;;5162077;22;20053;-93
2023/07/02 03:30:03;;;;;;;4.68;3.30;;;;;;;;;;5060953;22;20037;-93
2023/07/02 03:32:29;;;;;;;5.43;3.42;;;;;;;;;;5002720;28;20042;-93
2023/07/02 03:35:01;;;;;;;4.05;3.10;;;;;;;;;;5058866;23;20060;-93
2023/07/02 03:37:41;;;;;;;5.63;3.63;;;;;;;;;;5078242;23;20033;-94
2023/07/02 03:40:08;;;;;;;6.65;3.60;;;;;;;;;;5008129;28;20042;-93
2023/07/02 03:42:38;;;;;;;7.80;3.60;;;;;;;;;;5008443;28;20025;-93
2023/07/02 03:45:10;;;;;;;7.60;3.50;;;;;;;;;;5053254;23;20060;-94
2023/07/02 03:47:43;;;;;;;7.35;3.50;;;;;;;;;;5070556;23;20130;-94
2023/07/02 04:01:51;;;;;;;4.55;3.22;;;;;;;;;;5057314;22;20032;-93
2023/07/02 04:04:23;;;;;;;5.00;3.37;;;;;;;;;;5020404;28;20033;-93
2023/07/02 04:07:08;;;;;;;4.18;3.20;;;;;;;;;;5023207;28;20167;-94
2023/07/02 04:09:34;;;;;;;4.65;3.30;;;;;;;;;;5026778;28;20041;-93
2023/07/02 04:12:07;;;;;;;4.35;3.33;;;;;;;;;;5019621;28;20026;-95
2023/07/02 04:14:33;;;;;;;;;;;;;;;;;;5022952;28;20009;-93
2023/07/02 04:17:05;;;;;;;4.25;3.33;;;;;;;;;;5023114;28;19909;-94
2023/07/02 04:19:38;;;;;;;4.32;3.00;;;;;;;;;;5091368;23;20478;-93
2023/07/02 04:22:26;;;;;;;5.93;3.35;;;;;;;;;;5036483;28;20033;-93
2023/07/02 04:27:26;;;;;;;4.43;3.30;;;;;;;;;;5038654;28;20058;-93
2023/07/02 04:33:03;;;;;;;4.53;2.95;;;;;;;;;;4957375;29;20049;-93
2023/07/02 04:35:35;;;;;;;6.68;2.78;;;;;;;;;;5020608;28;20040;-93
2023/07/02 04:38:01;;;;;;;;;;;;;;;;;;5023077;28;20037;-95
2023/07/02 04:40:44;;;;;;;3.35;2.65;;;;;;;;;;5023535;28;19941;-93
2023/07/02 04:43:18;;;;;;;4.50;2.70;;;;;;;;;;5068135;23;20049;-93
2023/07/02 04:45:48;;;;;;;3.35;2.70;;;;;;;;;;5023527;28;20042;-94
2023/07/02 04:48:17;;;;;;;2.92;2.40;;;;;;;;;;5301027;22;20005;-95
2023/07/02 04:50:55;;;;;;;4.10;2.63;;;;;;;;;;5110529;23;20057;-95
2023/07/02 04:53:30;;;;;;;4.53;2.53;;;;;;;;;;5041527;28;20036;-95
2023/07/02 04:56:02;;;;;;;3.72;2.42;;;;;;;;;;5040013;28;20538;-94
2023/07/02 04:58:28;;;;;;;5.47;2.38;;;;;;;;;;5118520;23;20444;-94
2023/07/02 05:01:18;;;;;;;5.18;2.42;;;;;;;;;;5042039;28;20052;-95
2023/07/02 05:09:02;;;;;;;4.20;2.45;;;;;;;;;;5459385;22;20031;-94
2023/07/02 05:11:28;;;;;;;4.53;2.47;;;;;;;;;;5022770;28;20394;-93
2023/07/02 05:14:00;;;;;;;3.53;2.25;;;;;;;;;;5086007;23;20045;-95
2023/07/02 05:19:27;;;;;;;3.70;2.80;;;;;;;;;;5029152;28;20042;-95
2023/07/02 05:21:53;;;;;;;4.07;2.45;;;;;;;;;;5022983;28;20025;-94
2023/07/02 05:24:22;;;;;;;4.90;2.20;;;;;;;;;;5017632;28;20535;-94
2023/07/02 05:26:58;;;;;;;3.75;2.40;;;;;;;;;;5019415;28;20064;-94
2023/07/02 05:29:27;;;;;;;6.15;2.40;;;;;;;;;;5036719;28;20033;-96
2023/07/02 05:32:03;;;;;;;4.13;2.45;;;;;;;;;;5036960;28;20385;-96
2023/07/02 05:34:30;;;;;;;7.15;2.65;;;;;;;;;;5038250;28;20029;-93
2023/07/02 05:36:59;;;;;;;3.85;2.40;;;;;;;;;;5037621;28;20053;-96
2023/07/02 05:39:40;;;;;;;3.47;2.38;;;;;;;;;;5037363;28;20037;-96
2023/07/02 05:58:50;;;;;;;3.20;2.03;;;;;;;;;;5213414;22;20064;-94
2023/07/02 06:04:19;;;;;;;5.05;2.33;;;;;;;;;;5225852;22;20073;-94
2023/07/02 06:06:45;;;;;;;4.50;2.25;;;;;;;;;;5023448;28;20010;-96
2023/07/02 06:12:00;;;;;;;3.25;2.28;;;;;;;;;;5028080;28;20041;-95
2023/07/02 06:14:27;;;;;;;4.53;2.53;;;;;;;;;;5037529;28;20026;-95
2023/07/02 06:17:05;;;;;;;4.63;2.08;;;;;;;;;;5037133;28;20049;-95
2023/07/02 06:19:32;;;;;;;4.82;2.30;;;;;;;;;;5036991;28;20105;-96
2023/07/02 06:24:33;;;;;;;7.57;2.15;;;;;;;;;;5020454;28;20060;-93
2023/07/02 06:26:59;;;;;;;3.13;2.33;;;;;;;;;;5018010;28;20061;-92
2023/07/02 06:29:25;;;;;;;4.35;2.15;;;;;;;;;;5018734;28;20026;-93
2023/07/02 06:31:51;;;;;;;4.20;2.30;;;;;;;;;;5015300;28;20037;-94
2023/07/02 06:34:38;;;;;;;3.33;2.13;;;;;;;;;;5062746;22;20017;-94
2023/07/02 06:42:26;;;;;;;5.15;2.17;;;;;;;;;;5036674;28;20052;-93
2023/07/02 06:45:01;;;;;;;5.40;2.58;;;;;;;;;;5022654;28;20419;-95
2023/07/02 06:47:28;;;;;;;3.92;2.30;;;;;;;;;;5021880;28;20033;-94
2023/07/02 06:49:54;;;;;;;3.95;2.10;;;;;;;;;;5020810;28;20084;-94
2023/07/02 06:52:20;;;;;;;4.38;2.45;;;;;;;;;;5095477;23;20057;-94
2023/07/02 06:54:46;;;;;;;3.55;2.70;;;;;;;;;;5021776;28;20048;-96
2023/07/02 06:59:48;;;;;;;4.85;2.80;;;;;;;;;;5143646;22;20068;-96
2023/07/02 07:02:21;;;;;;;4.40;3.10;;;;;;;;;;5024694;28;20025;-96
2023/07/02 07:04:47;;;;;;;;;;;;;;;;;;5025112;28;20021;-95
2023/07/02 07:07:16;;;;;;;4.25;3.08;;;;;;;;;;5004439;28;20002;-95
2023/07/02 07:12:20;;;;;;;5.80;3.10;;;;;;;;;;5046724;23;20053;-95
2023/07/02 07:14:46;;;;;;;6.20;3.53;;;;;;;;;;5020532;28;20037;-95
2023/07/02 07:17:16;;;;;;;5.63;3.13;;;;;;;;;;5021682;28;20025;-92
2023/07/02 07:19:42;;;;;;;6.32;3.53;;;;;;;;;;5013050;28;20494;-93
2023/07/02 07:22:11;;;;;;;5.78;3.13;;;;;;;;;;5000141;28;20018;-94
2023/07/02 07:24:37;;;;;;;5.72;3.45;;;;;;;;;;5176193;23;20065;-96
2023/07/02 07:27:04;;;;;;;4.15;2.97;;;;;;;;;;5023569;28;20010;-93
2023/07/02 07:29:30;;;;;;;5.38;3.40;;;;;;;;;;5020170;28;20029;-96
2023/07/02 07:31:56;;;;;;;3.85;3.03;;;;;;;;;;5022361;28;20030;-94
2023/07/02 07:34:28;;;;;;;5.32;3.55;;;;;;;;;;5012779;28;20053;-93
2023/07/02 07:42:32;;;;;;;7.57;2.80;;;;;;;;;;5056551;28;20071;-92
2023/07/02 07:44:58;;;;;;;5.00;3.38;;;;;;;;;;5032140;28;20470;-93
2023/07/02 07:47:27;;;;;;;5.80;3.30;;;;;;;;;;5022541;28;20116;-91
2023/07/02 07:49:54;;;;;;;4.72;3.28;;;;;;;;;;5035673;28;20063;-94
2023/07/02 07:52:21;;;;;;;6.80;2.95;;;;;;;;;;5039617;28;20079;-94
2023/07/02 07:54:47;;;;;;;5.47;2.90;;;;;;;;;;5038154;28;20033;-95
2023/07/02 07:57:13;;;;;;;7.75;2.70;;;;;;;;;;5039488;28;20091;-94
2023/07/02 07:59:40;;;;;;;5.30;2.70;;;;;;;;;;5038892;28;20502;-93
2023/07/02 08:02:06;;;;;;;4.93;2.45;;;;;;;;;;5037709;28;20025;-95
2023/07/02 08:04:32;;;;;;;4.70;2.63;;;;;;;;;;5037643;28;20025;-94
2023/07/02 08:07:11;;;;;;;4.18;2.53;;;;;;;;;;5038144;28;20029;-94
2023/07/02 08:09:37;;;;;;;4.22;2.10;;;;;;;;;;5048018;28;20026;-95
2023/07/02 08:12:09;;;;;;;3.20;2.20;;;;;;;;;;5038140;28;20033;-94
2023/07/02 08:14:42;;;;;;;3.15;2.15;;;;;;;;;;5038324;28;20056;-93
2023/07/02 08:17:08;;;;;;;4.22;2.38;;;;;;;;;;5037256;28;20033;-94
2023/07/02 08:19:34;;;;;;;2.70;1.90;;;;;;;;;;5036890;28;20401;-94
2023/07/02 08:22:00;;;;;;;2.85;2.22;;;;;;;;;;5036746;28;20021;-93
2023/07/02 08:24:26;;;;;;;4.38;2.05;;;;;;;;;;5037860;28;20421;-93
2023/07/02 08:26:55;;;;;;;2.80;1.80;;;;;;;;;;5040532;28;20025;-95
2023/07/02 08:29:22;;;;;;;3.50;2.00;;;;;;;;;;5040239;28;20037;-96
2023/07/02 08:32:13;;;;;;;3.42;2.08;;;;;;;;;;5052465;28;20045;-94
2023/07/02 08:34:39;;;;;;;;;;;;;;;;;;5022534;28;20029;-94
2023/07/02 08:37:05;;;;;;;2.70;1.80;;;;;;;;;;5038755;28;19959;-96
2023/07/02 08:39:39;;;;;;;3.25;2.00;;;;;;;;;;5037660;28;20044;-95
2023/07/02 08:42:12;;;;;;;2.30;1.60;;;;;;;;;;5025362;28;20053;-95
2023/07/02 08:47:24;;;;;;;3.70;1.80;;;;;;;;;;5037816;28;19912;-95
2023/07/02 08:49:56;;;;;;;2.53;1.63;;;;;;;;;;5025843;28;20028;-93
2023/07/02 08:52:22;;;;;;;2.42;1.70;;;;;;;;;;5037701;28;20036;-94
2023/07/02 08:54:49;;;;;;;3.40;1.63;;;;;;;;;;5037233;28;20116;-95
2023/07/02 08:57:15;;;;;;;3.55;1.77;;;;;;;;;;5026909;28;20033;-94
2023/07/02 08:59:44;;;;;;;2.72;1.50;;;;;;;;;;5034992;28;20065;-92
2023/07/02 09:02:14;;;;;;;3.00;1.80;;;;;;;;;;5017801;28;20044;-94
2023/07/02 09:04:45;;;;;;;2.83;1.60;;;;;;;;;;5017383;28;20053;-95
2023/07/02 09:07:14;;;;;;;2.28;1.70;;;;;;;;;;5017946;28;20025;-93
2023/07/02 09:09:47;;;;;;;2.55;1.80;;;;;;;;;;5017270;28;20089;-96
2023/07/02 09:12:29;;;;;;;2.95;1.65;;;;;;;;;;5017787;28;20053;-96
2023/07/02 09:15:20;;;;;;;1.93;1.40;;;;;;;;;;5017470;28;20386;-94
2023/07/02 09:17:54;;;;;;;2.95;1.60;;;;;;;;;;5026875;28;20021;-95
2023/07/02 09:20:35;;;;;;;2.65;1.70;;;;;;;;;;5017810;28;20038;-94
2023/07/02 09:23:04;;;;;;;2.65;1.73;;;;;;;;;;5029955;28;20021;-93
2023/07/02 09:25:38;;;;;;;3.65;1.75;;;;;;;;;;5029223;28;20073;-93
2023/07/02 09:28:14;;;;;;;5.38;1.48;;;;;;;;;;5018138;28;20061;-93
2023/07/02 09:31:00;;;;;;;7.28;2.00;;;;;;;;;;5036530;28;20029;-93
2023/07/02 09:33:34;;;;;;;4.72;1.70;;;;;;;;;;5036053;28;20029;-95
2023/07/02 09:36:03;;;;;;;2.83;1.80;;;;;;;;;;5040746;28;20021;-95
2023/07/02 09:38:34;;;;;;;3.08;1.85;;;;;;;;;;5040520;28;20035;-94
2023/07/02 09:41:04;;;;;;;2.88;1.60;;;;;;;;;;5058855;28;20131;-95
2023/07/02 09:43:34;;;;;;;3.95;1.67;;;;;;;;;;5040268;28;20025;-93
2023/07/02 09:46:00;;;;;;;2.88;1.55;;;;;;;;;;5041024;28;20029;-93
2023/07/02 09:48:28;;;;;;;2.67;1.60;;;;;;;;;;5041099;28;20033;-93
2023/07/02 09:51:14;;;;;;;2.33;1.48;;;;;;;;;;5041809;28;20115;-94
2023/07/02 09:53:45;;;;;;;2.83;1.60;;;;;;;;;;5041825;28;20055;-95
2023/07/02 09:56:11;;;;;;;3.20;1.63;;;;;;;;;;5040062;28;20109;-93
2023/07/02 09:58:56;;;;;;;2.95;1.40;;;;;;;;;;5040798;28;20025;-94
2023/07/02 10:01:25;;;;;;;1.65;1.23;;;;;;;;;;5041494;28;20040;-93
2023/07/02 10:04:03;;;;;;;2.92;1.42;;;;;;;;;;5041331;28;20025;-91
2023/07/02 10:06:32;;;;;;;1.80;1.13;;;;;;;;;;5041278;28;20033;-93
2023/07/02 10:08:58;;;;;;;5.00;1.20;;;;;;;;;;5041719;28;20021;-94
2023/07/02 10:11:35;;;;;;;3.85;1.55;;;;;;;;;;5050812;28;20096;-94
2023/07/02 10:14:14;;;;;;;;;;;;;;;;;;;;;
2023/07/02 10:17:15;;;;;;;;;;;;;;;;;;;;;
2023/07/02 10:22:56;;;;;;;1.85;1.20;;;;;;;;;;5196886;23;20054;-95
2023/07/02 10:25:37;;;;;;;2.33;1.30;;;;;;;;;;5005700;28;20029;-93
2023/07/02 10:34:08;;;;;;;1.92;1.20;;;;;;;;;;5441107;22;20076;-96
2023/07/02 10:43:15;;;;;;;;;;;;;;;;;;;;;
2023/07/02 10:49:13;;;;;;;;;;;;;;;;;;;;;
2023/07/02 10:51:39;;;;;;;3.10;1.23;;;;;;;;;;5337914;22;20222;-95
2023/07/02 10:54:06;;;;;;;2.90;1.13;;;;;;;;;;5063818;23;20054;-96
2023/07/02 10:56:38;;;;;;;2.65;1.40;;;;;;;;;;5036585;28;20021;-96
2023/07/02 10:59:04;;;;;;;5.13;1.30;;;;;;;;;;5034704;28;20041;-96
2023/07/02 11:01:34;;;;;;;3.22;1.40;;;;;;;;;;5019567;28;20088;-96
2023/07/02 11:04:01;;;;;;;1.90;1.20;;;;;;;;;;5016712;28;20021;-95
2023/07/02 11:06:28;;;;;;;2.25;1.30;;;;;;;;;;5017203;28;20116;-95
2023/07/02 11:08:55;;;;;;;3.53;1.20;;;;;;;;;;5016359;28;20033;-94
2023/07/02 11:11:22;;;;;;;2.85;1.45;;;;;;;;;;5016261;28;20029;-92
2023/07/02 11:13:52;;;;;;;3.10;1.35;;;;;;;;;;5015806;28;20053;-95
2023/07/02 11:16:44;;;;;;;2.47;1.30;;;;;;;;;;5024791;28;20356;-94
2023/07/02 11:19:11;;;;;;;2.10;1.52;;;;;;;;;;5038030;28;20017;-96
2023/07/02 11:21:40;;;;;;;3.65;1.58;;;;;;;;;;5018800;28;20041;-96
2023/07/02 11:24:09;;;;;;;4.00;1.70;;;;;;;;;;5017234;28;20045;-96
2023/07/02 11:29:41;;;;;;;3.25;2.28;;;;;;;;;;5035038;28;20045;-96
2023/07/02 11:32:23;;;;;;;3.30;2.00;;;;;;;;;;5022898;28;20091;-96
2023/07/02 11:40:31;;;;;;;2.70;1.55;;;;;;;;;;5187889;23;20324;-95
2023/07/02 11:43:00;;;;;;;2.72;1.60;;;;;;;;;;5022698;28;20028;-96
2023/07/02 11:45:33;;;;;;;2.53;1.73;;;;;;;;;;5021393;28;20052;-95
2023/07/02 11:47:59;;;;;;;3.33;1.98;;;;;;;;;;5020526;28;20075;-95
2023/07/02 11:50:30;;;;;;;2.88;1.70;;;;;;;;;;5024007;28;20033;-94
2023/07/02 11:55:28;;;;;;;2.70;2.20;;;;;;;;;;5661664;22;20079;-96
2023/07/02 11:57:57;;;;;;;2.33;1.90;;;;;;;;;;5156935;23;20042;-96
2023/07/02 12:00:24;;;;;;;3.03;2.10;;;;;;;;;;5026837;28;20041;-96
2023/07/02 12:02:51;;;;;;;2.85;2.03;;;;;;;;;;5026934;28;20030;-96
2023/07/02 12:05:17;;;;;;;3.20;1.75;;;;;;;;;;5060507;23;20053;-96
2023/07/02 12:07:43;;;;;;;4.28;2.15;;;;;;;;;;5006097;28;20042;-95
2023/07/02 12:10:09;;;;;;;4.25;2.10;;;;;;;;;;5107100;23;20119;-96
2023/07/02 12:12:37;;;;;;;3.08;1.90;;;;;;;;;;5020320;28;20033;-96
2023/07/02 12:15:05;;;;;;;3.72;1.90;;;;;;;;;;5020062;28;20025;-95
2023/07/02 12:17:32;;;;;;;2.70;2.00;;;;;;;;;;5018402;28;20045;-94
2023/07/02 12:20:04;;;;;;;4.97;2.17;;;;;;;;;;5005195;28;20038;-95
2023/07/02 12:22:30;;;;;;;3.53;2.10;;;;;;;;;;4998340;28;20022;-92
2023/07/02 12:28:00;;;;;;;4.47;1.90;;;;;;;;;;5015588;28;20029;-94
2023/07/02 12:30:26;;;;;;;6.68;2.00;;;;;;;;;;5006341;28;20124;-93
2023/07/02 12:32:52;;;;;;;3.47;1.77;;;;;;;;;;5013257;28;20033;-93
2023/07/02 12:35:19;;;;;;;3.42;2.20;;;;;;;;;;5005328;28;20034;-90
2023/07/02 12:37:46;;;;;;;3.40;2.10;;;;;;;;;;4997259;28;20116;-93
2023/07/02 12:40:20;;;;;;;3.30;2.00;;;;;;;;;;4997348;28;20430;-96
2023/07/02 12:42:46;;;;;;;3.92;2.25;;;;;;;;;;4981904;28;20395;-95
2023/07/02 12:45:13;;;;;;;4.03;2.30;;;;;;;;;;4998407;28;20029;-94
2023/07/02 12:47:58;;;;;;;8.05;2.20;;;;;;;;;;4999272;28;20467;-94
2023/07/02 12:50:27;;;;;;;5.72;2.15;;;;;;;;;;4998529;28;20053;-93
2023/07/02 12:52:56;;;;;;;2.90;1.90;;;;;;;;;;4998206;28;20026;-93
2023/07/02 12:55:28;;;;;;;4.18;2.00;;;;;;;;;;5001410;28;20041;-92
2023/07/02 12:57:54;;;;;;;4.25;1.80;;;;;;;;;;5014494;28;20041;-94
2023/07/02 13:00:20;;;;;;;3.70;1.60;;;;;;;;;;4997708;28;20046;-94
2023/07/02 13:03:17;;;;;;;2.55;1.50;;;;;;;;;;5000327;28;20406;-91
2023/07/02 13:05:49;;;;;;;5.63;1.75;;;;;;;;;;5006448;28;20030;-93
2023/07/02 13:11:33;;;;;;;3.35;1.58;;;;;;;;;;5019638;28;20125;-96
2023/07/02 13:14:02;;;;;;;3.00;1.40;;;;;;;;;;5020757;28;20044;-96
2023/07/02 13:16:29;;;;;;;4.93;1.48;;;;;;;;;;5002582;28;20079;-95
2023/07/02 13:19:22;;;;;;;3.90;1.48;;;;;;;;;;5006916;28;20038;-96
2023/07/02 13:21:48;;;;;;;4.13;1.67;;;;;;;;;;5003034;28;20050;-96
2023/07/02 13:24:40;;;;;;;2.53;1.45;;;;;;;;;;5040306;28;20185;-96
2023/07/02 13:27:38;;;;;;;3.40;1.92;;;;;;;;;;4935138;29;20044;-96
2023/07/02 13:33:28;;;;;;;2.10;1.40;;;;;;;;;;4909218;29;20100;-96
2023/07/02 13:39:24;;;;;;;;;;;;;;;;;;;;;
2023/07/02 14:31:04;;;;;;;4.72;1.80;;;;;;;;;;5033423;28;20157;-96
2023/07/02 14:36:37;;;;;;;6.10;1.60;;;;;;;;;;5031451;28;20045;-93
2023/07/02 14:42:07;;;;;;;5.68;1.88;;;;;;;;;;5025311;28;20544;-96
2023/07/02 14:44:33;;;;;;;5.68;1.55;;;;;;;;;;5014121;28;20030;-96
2023/07/02 14:47:11;;;;;;;3.28;1.38;;;;;;;;;;4999348;28;20037;-96
2023/07/02 14:49:46;;;;;;;2.88;1.63;;;;;;;;;;4999632;28;20022;-95
2023/07/02 14:52:13;;;;;;;3.35;1.60;;;;;;;;;;4999423;28;20034;-94
2023/07/02 14:54:39;;;;;;;3.95;1.40;;;;;;;;;;5000146;28;20022;-96
2023/07/02 14:57:11;;;;;;;5.78;1.75;;;;;;;;;;5001183;28;20115;-95
2023/07/02 14:59:41;;;;;;;2.55;1.40;;;;;;;;;;5015814;28;20025;-93
2023/07/02 15:02:14;;;;;;;2.25;1.42;;;;;;;;;;5018285;28;20025;-94
2023/07/02 15:04:40;;;;;;;4.05;1.42;;;;;;;;;;5019017;28;20029;-92
2023/07/02 15:07:09;;;;;;;2.85;1.50;;;;;;;;;;5018862;28;20030;-94
2023/07/02 15:09:58;;;;;;;10.05;1.50;;;;;;;;;;5019909;28;20026;-94
2023/07/02 15:24:23;;;;;;;3.03;1.40;;;;;;;;;;4940472;29;20038;-96
2023/07/02 15:26:49;;;;;;;2.25;1.45;;;;;;;;;;4962731;28;20050;-95
2023/07/02 15:29:40;;;;;;;3.42;1.73;;;;;;;;;;5018118;28;20045;-94
2023/07/02 15:32:22;;;;;;;2.28;1.38;;;;;;;;;;4998541;28;20034;-94
2023/07/02 15:34:48;;;;;;;4.57;1.42;;;;;;;;;;4999453;28;20538;-93
2023/07/02 15:37:21;;;;;;;4.90;1.40;;;;;;;;;;4998839;28;20073;-93
2023/07/02 15:39:50;;;;;;;4.05;1.30;;;;;;;;;;5005550;28;20037;-93
2023/07/02 15:45:21;;;;;;;3.17;1.60;;;;;;;;;;4975977;28;20038;-96
2023/07/02 15:51:13;;;;;;;5.07;1.50;;;;;;;;;;4920243;29;20032;-96
2023/07/02 15:56:45;;;;;;;4.10;1.40;;;;;;;;;;4829760;29;20026;-96
2023/07/02 15:59:30;;;;;;;3.35;1.73;;;;;;;;;;4850574;29;20091;-95
2023/07/02 16:02:24;;;;;;;3.50;1.73;;;;;;;;;;4860091;29;20054;-95
2023/07/02 16:07:43;;;;;;;2.53;1.60;;;;;;;;;;5197592;23;19913;-96
2023/07/02 16:12:52;;;;;;;3.45;1.55;;;;;;;;;;5054146;23;20265;-95
2023/07/02 16:21:22;;;;;;;3.00;1.60;;;;;;;;;;5364277;22;20067;-95
2023/07/02 16:35:05;;;;;;;3.38;1.85;;;;;;;;;;5141696;22;20053;-96
2023/07/02 16:52:13;;;;;;;;;;;;;;;;;;;;;
2023/07/02 17:00:20;;;;;;;4.40;2.10;;;;;;;;;;5217957;22;20053;-96
2023/07/02 17:12:35;;;;;;;4.38;2.45;;;;;;;;;;5168766;22;20045;-94
2023/07/02 17:21:27;;;;;;;3.35;2.33;;;;;;;;;;5024812;28;20049;-96
2023/07/02 17:33:34;;;;;;;9.90;3.17;;;;;;;;;;5043156;28;20042;-96
2023/07/02 17:38:31;;;;;;;10.85;2.85;;;;;;;;;;5035606;28;20102;-96
2023/07/02 17:41:09;;;;;;;10.48;3.00;;;;;;;;;;5009772;28;20038;-95
2023/07/02 17:43:45;;;;;;;14.40;2.83;;;;;;;;;;5019636;28;20030;-96
2023/07/02 17:46:43;;;;;;;12.77;2.97;;;;;;;;;;4996866;28;20189;-96
2023/07/02 17:49:15;;;;;;;17.10;2.97;;;;;;;;;;4971078;28;20042;-94
2023/07/02 17:51:44;;;;;;;16.65;3.28;;;;;;;;;;4971945;28;20051;-93
2023/07/02 17:54:13;;;;;;;21.02;3.05;;;;;;;;;;4958218;28;20129;-92
2023/07/02 17:56:59;;;;;;;11.70;2.97;;;;;;;;;;4960259;28;20046;-92
2023/07/02 17:59:30;;;;;;;14.35;3.15;;;;;;;;;;4960500;28;20479;-93
2023/07/02 18:01:59;;;;;;;21.80;3.13;;;;;;;;;;4937939;29;20068;-93
2023/07/02 18:04:32;;;;;;;4.97;2.85;;;;;;;;;;4938297;29;20048;-93
2023/07/02 18:07:20;;;;;;;5.75;2.70;;;;;;;;;;4937865;29;20070;-93
2023/07/02 18:09:53;;;;;;;4.15;2.60;;;;;;;;;;4936030;29;20090;-93
2023/07/02 18:15:10;;;;;;;5.65;2.88;;;;;;;;;;4957394;29;20067;-93
2023/07/02 18:17:39;;;;;;;4.47;2.78;;;;;;;;;;4967001;28;20034;-93
2023/07/02 18:20:06;;;;;;;9.10;3.13;;;;;;;;;;4979062;28;20092;-93
2023/07/02 18:22:35;;;;;;;5.30;2.80;;;;;;;;;;5009956;23;20078;-92
2023/07/02 18:25:20;;;;;;;5.32;2.75;;;;;;;;;;5023213;28;20538;-94
2023/07/02 18:28:04;;;;;;;5.20;2.63;;;;;;;;;;5019013;28;20030;-95
2023/07/02 18:30:37;;;;;;;4.68;2.92;;;;;;;;;;5019161;28;20025;-94
2023/07/02 18:33:08;;;;;;;6.03;2.95;;;;;;;;;;5019565;28;20470;-93
2023/07/02 18:35:37;;;;;;;4.63;2.78;;;;;;;;;;5019103;28;20030;-95
2023/07/02 18:38:11;;;;;;;3.53;2.63;;;;;;;;;;5018892;28;20021;-95
2023/07/02 18:41:06;;;;;;;6.38;2.75;;;;;;;;;;5018565;28;20033;-93
2023/07/02 18:43:37;;;;;;;4.75;2.83;;;;;;;;;;5017439;28;20033;-94
2023/07/02 18:46:07;;;;;;;5.65;2.95;;;;;;;;;;5018497;28;20120;-94
2023/07/02 19:00:05;;;;;;;4.43;2.90;;;;;;;;;;5047378;28;20041;-95
2023/07/02 19:08:28;;;;;;;6.70;2.97;;;;;;;;;;5197953;23;20066;-96
2023/07/02 19:13:58;;;;;;;;;;;;;;;;;;5024912;28;20045;-93
2023/07/02 19:23:02;;;;;;;7.18;3.47;;;;;;;;;;5010957;28;20089;-93
2023/07/02 19:25:46;;;;;;;5.20;3.17;;;;;;;;;;4990218;28;20439;-96
2023/07/02 19:28:40;;;;;;;4.60;3.22;;;;;;;;;;5137063;23;20049;-96
2023/07/02 19:31:06;;;;;;;7.00;3.25;;;;;;;;;;5012585;28;20030;-93
2023/07/02 19:33:58;;;;;;;5.40;3.58;;;;;;;;;;5020447;28;20087;-92
2023/07/02 19:36:24;;;;;;;5.70;3.60;;;;;;;;;;5021925;28;20016;-93
2023/07/02 19:38:50;;;;;;;6.10;3.08;;;;;;;;;;5021708;28;20037;-92
2023/07/02 19:41:16;;;;;;;6.55;3.67;;;;;;;;;;5020993;28;20371;-93
2023/07/02 19:43:48;;;;;;;6.05;3.20;;;;;;;;;;5015110;28;20029;-96
2023/07/02 19:49:20;;;;;;;5.43;3.42;;;;;;;;;;5848070;23;20025;-93
2023/07/02 19:51:50;;;;;;;5.22;3.17;;;;;;;;;;5323064;23;20926;-94
2023/07/02 19:57:01;;;;;;;6.38;3.90;;;;;;;;;;5036100;28;20048;-92
2023/07/02 19:59:28;;;;;;;5.97;3.53;;;;;;;;;;5023781;28;20018;-96
2023/07/02 20:02:00;;;;;;;8.80;3.78;;;;;;;;;;5026191;28;20056;-96
2023/07/02 20:07:31;;;;;;;6.28;3.45;;;;;;;;;;5063218;23;20212;-95
2023/07/02 20:10:00;;;;;;;5.00;3.50;;;;;;;;;;5015893;28;20030;-95
2023/07/02 20:15:33;;;;;;;9.27;3.90;;;;;;;;;;5048779;28;20329;-94
2023/07/02 20:24:23;;;;;;;5.60;3.60;;;;;;;;;;5039256;28;20034;-93
2023/07/02 20:29:56;;;;;;;7.63;4.07;;;;;;;;;;5036755;28;20112;-93
2023/07/02 20:32:32;;;;;;;6.38;3.65;;;;;;;;;;5021392;28;20026;-95
2023/07/02 20:34:58;;;;;;;7.43;3.80;;;;;;;;;;5021358;28;20481;-93
2023/07/02 20:37:31;;;;;;;7.47;4.28;;;;;;;;;;5022370;28;20053;-96
2023/07/02 20:40:18;;;;;;;7.57;4.22;;;;;;;;;;5002891;28;20033;-93
2023/07/02 20:43:21;;;;;;;6.43;3.85;;;;;;;;;;5018674;28;20034;-95
2023/07/02 20:54:30;;;;;;;6.63;4.00;;;;;;;;;;5011167;28;20115;-93
2023/07/02 20:57:05;;;;;;;5.95;4.13;;;;;;;;;;4983306;28;20026;-93
2023/07/02 21:36:10;;;;;;;7.47;4.72;;;;;;;;;;5122156;22;19943;-94
2023/07/02 22:03:27;;;;;;;6.95;4.45;;;;;;;;;;5044398;28;20454;-96